Covington, MI

1:43 PM EDT on August 01, 2015 (GMT -0400)
MesoWest | | Change Station
CLOSE
Current Station
Personal Weather Station
Location: Michigamme, MI
Elevation: 1601 ft
Nearby Weather Stations

Elev 1601 ft 46.54 °N, 88.13 °W | Updated 43 minutes ago

Partly Cloudy
Partly Cloudy
71 °F
Feels Like 77 °F
N
11
Wind Variable Wind from West
Gusts 17.0 mph

Today
High -- | Low -- °F
--% Chance of Precip.
Yesterday
High -- | Low -- °F
Precip. -- in
6:34 AM 9:25 PM
Full, 98% visible
Pressure 29.93 in
Visibility 10.0 miles
Clouds Scattered Clouds 4900 ft
Scattered Clouds 5500 ft
Mostly Cloudy 7000 ft
Heat Index 77 °F
Dew Point 52 °F
Humidity 50%
Rainfall in
Snow Depth Not available.
UV 5 out of 12
Pollen 7.50 out of 12
Air Quality Not available.
Flu Activity Not available.
METAR KLNL 011715Z AUTO 31008G16KT 280V340 10SM SCT049 SCT055 BKN070 24/09 A2993 RMK AO2 T02360092

More Conditions Fewer Conditions

Pressure 29.93 in
Visibility 10.0 miles
Clouds Scattered Clouds 4900 ft
Scattered Clouds 5500 ft
Mostly Cloudy 7000 ft
Heat Index 77 °F
Dew Point 52 °F
Humidity 50%
Rainfall in
Snow Depth Not available.
UV 5 out of 12
Pollen 7.50 out of 12
Air Quality Not available.
Flu Activity Not available.
METAR KLNL 011715Z AUTO 31008G16KT 280V340 10SM SCT049 SCT055 BKN070 24/09 A2993 RMK AO2 T02360092

More Conditions Fewer Conditions

10-Day Weather Forecast

×

Almanac

Astronomy

Aug. 01, 2015 Rise Set
Actual Time
Civil Twilight
Nautical Twilight
Astronomical Twilight
Moon
Length of Visible Light
Length of Day
Tomorrow will be .
, % of the Moon is Illuminated

Today's Extremes

State Highs State Lows

Community

WunderPhotos

Upload Photos

1,843,004 photos uploaded!

WunderBlogs® & News

Nearby

Air Quality

  Air Quality AQ Index Pollutant
Not available.

Snow Depth

Station Depth Elevation

Earthquake Activity

City Distance Mag. Time & Date
Minimum magnitude displayed is 2.5.

Coastal Water Temperatures

Place Temperature

Stations

Nearby Weather Stations

Station Location Temp. Windchill Dew Point Humidity Wind Precip. Elev Updated Type